Time;durP1;ratioP1;P1;durP2;ratioP2;P2;SDS_P1;SDS_P2;PMS_P1;PMS_P2;Temp;Humidity;BMP_temperature;BMP_pressure;BME280_temperature;BME280_humidity;BME280_pressure;Samples;Min_cycle;Max_cycle;Signal;HPM_P1;HPM_P2
2023/10/24 00:00:54;;;;;;;;;;;;;;;8.98;100.00;101160.83;109629;1245;63065;-72
2023/10/24 00:03:28;;;;;;;;;;;;;;;8.96;100.00;101157.77;109721;1247;58321;-72
2023/10/24 00:05:57;;;;;;;;;;;;;;;8.92;100.00;101154.75;109752;1244;60810;-72
2023/10/24 00:08:25;;;;;;;;;;;;;;;8.89;100.00;101154.92;109732;1244;74752;-74
2023/10/24 00:11:04;;;;;;;;;;;;;;;8.85;100.00;101154.27;109772;1244;60823;-71
2023/10/24 00:13:32;;;;;;;;;;;;;;;8.81;100.00;101162.69;109757;1244;70316;-72
2023/10/24 00:16:01;;;;;;;;;;;;;;;8.76;100.00;101161.39;109774;1244;63379;-72
2023/10/24 00:18:29;;;;;;;;;;;;;;;8.73;100.00;101165.17;109644;1248;62657;-72
2023/10/24 00:20:58;;;;;;;;;;;;;;;8.76;100.00;101167.98;109783;1244;57723;-71
2023/10/24 00:23:29;;;;;;;;;;;;;;;8.82;100.00;101166.23;109738;1247;62844;-74
2023/10/24 00:25:57;;;;;;;;;;;;;;;8.84;100.00;101163.54;109608;1244;71980;-72
2023/10/24 00:28:26;;;;;;;;;;;;;;;8.81;100.00;101156.94;109667;1244;59623;-72
2023/10/24 00:30:54;;;;;;;;;;;;;;;8.78;100.00;101148.97;109753;1244;73749;-73
2023/10/24 00:33:23;;;;;;;;;;;;;;;8.76;100.00;101142.96;109692;1248;58380;-73
2023/10/24 00:35:51;;;;;;;;;;;;;;;8.72;100.00;101138.86;109789;1244;60880;-73
2023/10/24 00:38:20;;;;;;;;;;;;;;;8.66;100.00;101135.55;109606;1244;63532;-72
2023/10/24 00:40:48;;;;;;;;;;;;;;;8.61;100.00;101140.02;109805;1244;72094;-73
2023/10/24 00:43:17;;;;;;;;;;;;;;;8.57;100.00;101143.21;109785;1244;60317;-74
2023/10/24 00:45:45;;;;;;;;;;;;;;;8.55;100.00;101142.66;109768;1244;72958;-73
2023/10/24 00:48:14;;;;;;;;;;;;;;;8.53;100.00;101136.88;109636;1248;58364;-73
2023/10/24 00:50:43;;;;;;;;;;;;;;;8.49;100.00;101130.11;109768;1244;57749;-73
2023/10/24 00:53:12;;;;;;;;;;;;;;;8.45;100.00;101130.35;109603;1244;74220;-73
2023/10/24 00:55:41;;;;;;;;;;;;;;;8.35;100.00;101126.38;109546;1250;71914;-72
2023/10/24 00:58:09;;;;;;;;;;;;;;;8.35;100.00;101139.41;109504;1244;69878;-72
2023/10/24 01:00:40;;;;;;;;;;;;;;;8.28;100.00;101138.20;109580;1245;73406;-72
2023/10/24 01:03:09;;;;;;;;;;;;;;;8.24;100.00;101140.71;109538;1244;58248;-73
2023/10/24 01:05:40;;;;;;;;;;;;;;;8.20;100.00;101142.62;109637;1244;61059;-74
2023/10/24 01:08:08;;;;;;;;;;;;;;;8.11;100.00;101140.17;109750;1245;74740;-73
2023/10/24 01:10:37;;;;;;;;;;;;;;;8.05;100.00;101134.30;109747;1244;61568;-73
2023/10/24 01:13:08;;;;;;;;;;;;;;;8.02;100.00;101133.23;109844;1244;70291;-72
2023/10/24 01:15:37;;;;;;;;;;;;;;;7.98;100.00;101128.97;109726;1246;74142;-72
2023/10/24 01:18:05;;;;;;;;;;;;;;;7.92;100.00;101127.38;109718;1246;61741;-72
2023/10/24 01:20:39;;;;;;;;;;;;;;;7.86;100.00;101130.33;109839;1244;57766;-72
2023/10/24 01:23:09;;;;;;;;;;;;;;;7.85;100.00;101125.86;109626;1244;63657;-74
2023/10/24 01:25:40;;;;;;;;;;;;;;;7.82;100.00;101126.56;109733;1244;61661;-73
2023/10/24 01:28:09;;;;;;;;;;;;;;;7.79;100.00;101133.27;109711;1248;69358;-73
2023/10/24 01:30:38;;;;;;;;;;;;;;;7.81;100.00;101133.01;109584;1249;73236;-73
2023/10/24 01:33:07;;;;;;;;;;;;;;;7.76;100.00;101129.61;109714;1248;57735;-73
2023/10/24 01:35:35;;;;;;;;;;;;;;;7.72;100.00;101132.42;109725;1248;60031;-73
2023/10/24 01:38:04;;;;;;;;;;;;;;;7.68;100.00;101133.68;109730;1244;75099;-71
2023/10/24 01:40:33;;;;;;;;;;;;;;;7.63;100.00;101137.41;109814;1244;61305;-71
2023/10/24 01:43:01;;;;;;;;;;;;;;;7.62;100.00;101136.45;109720;1244;70297;-71
2023/10/24 01:45:30;;;;;;;;;;;;;;;7.61;100.00;101133.38;109796;1244;62921;-71
2023/10/24 01:47:58;;;;;;;;;;;;;;;7.60;100.00;101127.72;109730;1244;61250;-71
2023/10/24 01:50:27;;;;;;;;;;;;;;;7.58;100.00;101126.25;109725;1243;58207;-71
2023/10/24 01:52:58;;;;;;;;;;;;;;;7.54;100.00;101130.11;109673;1244;73684;-72
2023/10/24 01:55:27;;;;;;;;;;;;;;;7.50;100.00;101133.61;109635;1244;71750;-72
2023/10/24 01:57:56;;;;;;;;;;;;;;;7.47;100.00;101133.61;109621;1244;59771;-71
2023/10/24 02:00:24;;;;;;;;;;;;;;;7.47;100.00;101134.11;109606;1245;73092;-72
2023/10/24 02:02:53;;;;;;;;;;;;;;;7.49;100.00;101136.82;109783;1245;61932;-71
2023/10/24 02:05:22;;;;;;;;;;;;;;;7.51;100.00;101142.42;109855;1245;61531;-71
2023/10/24 02:07:52;;;;;;;;;;;;;;;7.53;100.00;101145.95;109787;1244;75369;-72
2023/10/24 02:10:22;;;;;;;;;;;;;;;7.54;100.00;101141.55;109691;1245;71114;-72
2023/10/24 02:12:50;;;;;;;;;;;;;;;7.50;100.00;101142.09;109798;1244;70014;-73
2023/10/24 02:15:19;;;;;;;;;;;;;;;7.45;100.00;101144.61;109772;1245;63474;-73
2023/10/24 02:17:47;;;;;;;;;;;;;;;7.41;100.00;101141.73;109791;1245;61932;-73
2023/10/24 02:20:16;;;;;;;;;;;;;;;7.40;100.00;101146.09;109826;1244;57641;-79
2023/10/24 02:22:51;;;;;;;;;;;;;;;7.57;100.00;101147.64;109812;1244;74612;-73
2023/10/24 02:25:20;;;;;;;;;;;;;;;7.65;100.00;101138.35;109813;1244;61868;-73
2023/10/24 02:27:48;;;;;;;;;;;;;;;7.71;100.00;101146.02;109742;1245;70192;-73
2023/10/24 02:30:17;;;;;;;;;;;;;;;7.76;100.00;101144.01;109728;1245;71620;-80
2023/10/24 02:32:45;;;;;;;;;;;;;;;7.78;100.00;101141.48;109818;1244;61559;-73
2023/10/24 02:35:14;;;;;;;;;;;;;;;7.78;100.00;101142.72;109758;1244;61382;-73
2023/10/24 02:37:43;;;;;;;;;;;;;;;7.72;100.00;101146.85;109812;1245;64130;-72
2023/10/24 02:40:11;;;;;;;;;;;;;;;7.62;100.00;101152.23;109831;1244;71996;-71
2023/10/24 02:42:40;;;;;;;;;;;;;;;7.54;100.00;101153.54;109879;1244;58849;-72
2023/10/24 02:45:10;;;;;;;;;;;;;;;7.50;100.00;101153.02;109811;1243;63051;-72
2023/10/24 02:47:39;;;;;;;;;;;;;;;7.47;100.00;101151.29;109825;1245;57765;-72
2023/10/24 02:50:07;;;;;;;;;;;;;;;7.42;100.00;101147.18;109774;1244;60868;-72
2023/10/24 02:52:37;;;;;;;;;;;;;;;7.39;100.00;101145.95;109755;1244;63472;-72
2023/10/24 02:55:08;;;;;;;;;;;;;;;7.35;100.00;101148.95;109853;1245;71979;-71
2023/10/24 02:57:37;;;;;;;;;;;;;;;7.31;100.00;101155.08;109800;1244;59724;-72
2023/10/24 03:00:06;;;;;;;;;;;;;;;7.23;100.00;101155.14;109783;1248;72127;-73
2023/10/24 03:02:35;;;;;;;;;;;;;;;7.18;100.00;101152.27;109735;1248;57779;-71
2023/10/24 03:05:04;;;;;;;;;;;;;;;7.09;100.00;101150.64;109730;1244;61124;-71
2023/10/24 03:07:32;;;;;;;;;;;;;;;7.03;100.00;101148.85;109709;1245;74217;-71
2023/10/24 03:10:01;;;;;;;;;;;;;;;6.98;100.00;101143.77;109546;1245;61520;-72
2023/10/24 03:12:31;;;;;;;;;;;;;;;6.91;100.00;101148.27;109558;1245;69474;-73
2023/10/24 03:15:00;;;;;;;;;;;;;;;6.83;100.00;101152.64;109625;1245;62662;-75
2023/10/24 03:17:29;;;;;;;;;;;;;;;6.78;100.00;101155.16;109587;1244;58361;-72
2023/10/24 03:19:58;;;;;;;;;;;;;;;6.80;100.00;101161.60;109686;1245;60043;-71
2023/10/24 03:22:26;;;;;;;;;;;;;;;6.77;100.00;101162.82;109669;1243;64617;-72
2023/10/24 03:24:56;;;;;;;;;;;;;;;6.73;100.00;101161.23;109716;1244;70935;-72
2023/10/24 03:27:24;;;;;;;;;;;;;;;6.74;100.00;101153.95;109728;1244;70131;-73
2023/10/24 03:29:53;;;;;;;;;;;;;;;6.76;100.00;101143.64;109671;1248;72903;-72
2023/10/24 03:32:21;;;;;;;;;;;;;;;6.77;100.00;101139.43;109679;1244;63191;-74
2023/10/24 03:34:50;;;;;;;;;;;;;;;6.76;100.00;101139.47;109816;1246;58447;-71
2023/10/24 03:37:20;;;;;;;;;;;;;;;6.88;100.00;101138.73;109705;1249;73495;-73
2023/10/24 03:39:48;;;;;;;;;;;;;;;6.97;100.00;101136.52;109763;1244;71962;-72
2023/10/24 03:42:17;;;;;;;;;;;;;;;7.05;100.00;101137.48;109828;1244;59515;-72
2023/10/24 03:44:45;;;;;;;;;;;;;;;7.07;100.00;101138.61;109787;1245;74195;-72
2023/10/24 03:47:14;;;;;;;;;;;;;;;7.03;100.00;101140.23;109763;1247;58351;-73
2023/10/24 03:49:43;;;;;;;;;;;;;;;6.94;100.00;101141.17;109864;1244;58261;-72
2023/10/24 03:52:12;;;;;;;;;;;;;;;6.84;100.00;101140.80;109829;1244;62769;-72
2023/10/24 03:54:40;;;;;;;;;;;;;;;6.75;100.00;101145.45;109794;1244;71785;-73
2023/10/24 03:57:09;;;;;;;;;;;;;;;6.72;100.00;101143.84;109788;1244;71655;-71
2023/10/24 03:59:38;;;;;;;;;;;;;;;6.69;100.00;101142.98;109792;1245;62647;-71
2023/10/24 04:02:06;;;;;;;;;;;;;;;6.68;100.00;101141.62;109764;1246;57836;-71
2023/10/24 04:04:35;;;;;;;;;;;;;;;6.62;100.00;101143.78;109740;1248;58193;-72
2023/10/24 04:07:04;;;;;;;;;;;;;;;6.58;100.00;101141.06;109736;1244;73272;-72
2023/10/24 04:09:33;;;;;;;;;;;;;;;6.55;100.00;101137.59;109726;1245;71458;-73
2023/10/24 04:12:06;;;;;;;;;;;;;;;6.50;100.00;101133.84;109730;1244;70124;-72
2023/10/24 04:14:35;;;;;;;;;;;;;;;6.47;100.00;101132.95;109628;1244;63565;-70
2023/10/24 04:17:04;;;;;;;;;;;;;;;6.45;100.00;101133.40;109715;1247;62643;-70
2023/10/24 04:19:34;;;;;;;;;;;;;;;6.51;100.00;101140.70;109622;1244;60700;-75
2023/10/24 04:22:03;;;;;;;;;;;;;;;6.48;100.00;101139.11;109687;1248;74082;-74
2023/10/24 04:24:31;;;;;;;;;;;;;;;6.44;100.00;101139.67;109738;1245;72305;-74
2023/10/24 04:27:00;;;;;;;;;;;;;;;6.40;100.00;101142.27;109731;1248;59439;-74
2023/10/24 04:29:31;;;;;;;;;;;;;;;6.35;100.00;101140.09;109660;1244;73927;-67
2023/10/24 04:31:59;;;;;;;;;;;;;;;6.31;100.00;101137.55;109559;1249;62537;-69
2023/10/24 04:34:28;;;;;;;;;;;;;;;6.28;100.00;101138.04;109668;1245;57739;-68
2023/10/24 04:36:57;;;;;;;;;;;;;;;6.19;100.00;101126.14;109637;1245;63693;-70
2023/10/24 04:39:25;;;;;;;;;;;;;;;6.22;100.00;101139.67;109559;1244;72032;-72
2023/10/24 04:41:54;;;;;;;;;;;;;;;6.19;100.00;101143.12;109568;1244;70774;-70
2023/10/24 04:44:23;;;;;;;;;;;;;;;6.17;100.00;101147.03;109567;1248;62738;-69
2023/10/24 04:46:51;;;;;;;;;;;;;;;6.16;100.00;101152.09;109607;1243;61816;-70
2023/10/24 04:49:20;;;;;;;;;;;;;;;6.27;100.00;101155.89;109690;1246;57788;-70
2023/10/24 04:51:49;;;;;;;;;;;;;;;6.35;100.00;101159.80;109663;1244;63524;-70
2023/10/24 04:54:17;;;;;;;;;;;;;;;6.35;100.00;101163.96;109733;1244;71359;-70
2023/10/24 04:56:46;;;;;;;;;;;;;;;6.36;100.00;101170.13;109797;1244;59612;-69
2023/10/24 04:59:15;;;;;;;;;;;;;;;6.38;100.00;101177.15;109788;1243;73808;-68
2023/10/24 05:01:43;;;;;;;;;;;;;;;6.46;100.00;101178.83;109788;1244;62288;-70
2023/10/24 05:04:12;;;;;;;;;;;;;;;6.58;100.00;101169.59;109790;1244;58360;-76
2023/10/24 05:06:41;;;;;;;;;;;;;;;6.85;100.00;101184.23;109659;1244;74536;-77
2023/10/24 05:09:10;;;;;;;;;;;;;;;7.20;100.00;101191.30;109599;1244;71510;-77
2023/10/24 05:11:39;;;;;;;;;;;;;;;7.45;100.00;101195.55;109637;1248;60473;-76
2023/10/24 05:14:08;;;;;;;;;;;;;;;7.64;100.00;101196.66;109622;1245;62484;-77
2023/10/24 05:16:38;;;;;;;;;;;;;;;7.84;100.00;101199.59;109605;1245;62759;-76
2023/10/24 05:19:06;;;;;;;;;;;;;;;7.99;100.00;101200.05;109632;1244;60007;-76
2023/10/24 05:21:35;;;;;;;;;;;;;;;8.03;100.00;101194.94;109621;1248;62679;-76
2023/10/24 05:24:04;;;;;;;;;;;;;;;8.01;100.00;101197.12;109581;1244;63983;-78
2023/10/24 05:26:32;;;;;;;;;;;;;;;7.92;100.00;101200.53;109329;1244;399937;-76
2023/10/24 05:29:01;;;;;;;;;;;;;;;7.94;100.00;101203.23;109551;1248;62906;-77
2023/10/24 05:31:29;;;;;;;;;;;;;;;8.08;100.00;101206.27;109594;1244;63210;-76
2023/10/24 05:33:58;;;;;;;;;;;;;;;8.23;100.00;101199.89;109611;1247;58199;-77
2023/10/24 05:36:26;;;;;;;;;;;;;;;8.38;100.00;101209.16;109555;1244;74345;-68
2023/10/24 05:38:55;;;;;;;;;;;;;;;8.42;100.00;101209.84;109612;1248;60726;-67
2023/10/24 05:41:24;;;;;;;;;;;;;;;8.57;100.00;101204.81;109538;1248;59016;-68
2023/10/24 05:43:52;;;;;;;;;;;;;;;8.79;100.00;101192.65;109566;1244;73195;-69
2023/10/24 05:46:23;;;;;;;;;;;;;;;8.96;100.00;101199.85;109568;1247;57791;-69
2023/10/24 05:48:53;;;;;;;;;;;;;;;9.02;100.00;101205.39;109645;1247;57760;-68
2023/10/24 05:51:28;;;;;;;;;;;;;;;9.09;100.00;101204.80;109585;1244;72579;-69
2023/10/24 05:53:57;;;;;;;;;;;;;;;9.10;100.00;101197.96;109608;1244;71150;-68
2023/10/24 05:56:26;;;;;;;;;;;;;;;9.19;100.00;101196.05;109506;1244;70179;-67
2023/10/24 05:58:55;;;;;;;;;;;;;;;9.26;100.00;101198.59;109456;1248;74553;-68
2023/10/24 06:01:23;;;;;;;;;;;;;;;9.37;100.00;101203.90;109559;1248;63042;-67
2023/10/24 06:03:52;;;;;;;;;;;;;;;9.46;100.00;101208.34;109515;1244;58322;-68
2023/10/24 06:06:20;;;;;;;;;;;;;;;9.55;100.00;101206.44;109494;1249;73544;-68
2023/10/24 06:08:49;;;;;;;;;;;;;;;9.55;100.00;101203.51;109612;1247;61499;-68
2023/10/24 06:11:18;;;;;;;;;;;;;;;9.62;100.00;101207.44;109540;1244;70868;-68
2023/10/24 06:13:47;;;;;;;;;;;;;;;9.71;100.00;101205.30;109735;1248;63937;-69
2023/10/24 06:16:18;;;;;;;;;;;;;;;9.79;100.00;101201.02;109629;1248;58312;-68
2023/10/24 06:18:47;;;;;;;;;;;;;;;9.93;100.00;101198.38;109656;1249;60273;-69
2023/10/24 06:21:16;;;;;;;;;;;;;;;10.03;100.00;101197.91;109793;1247;63740;-68
2023/10/24 06:23:45;;;;;;;;;;;;;;;10.17;100.00;101191.10;109776;1244;71672;-68
2023/10/24 06:26:14;;;;;;;;;;;;;;;10.28;100.00;101181.39;109788;1244;69868;-68
2023/10/24 06:28:43;;;;;;;;;;;;;;;10.40;100.00;101180.13;109680;1244;62973;-69
2023/10/24 06:31:12;;;;;;;;;;;;;;;10.51;100.00;101177.50;109626;1248;58280;-70
2023/10/24 06:33:41;;;;;;;;;;;;;;;10.68;100.00;101174.88;109637;1248;61495;-68
2023/10/24 06:36:10;;;;;;;;;;;;;;;10.75;100.00;101172.83;109765;1244;63716;-69
2023/10/24 06:38:38;;;;;;;;;;;;;;;10.75;100.00;101175.02;109721;1247;71886;-68
2023/10/24 06:41:08;;;;;;;;;;;;;;;10.75;100.00;101177.69;109634;1248;60298;-68
2023/10/24 06:43:37;;;;;;;;;;;;;;;10.81;100.00;101170.29;109791;1248;63114;-68
2023/10/24 06:46:05;;;;;;;;;;;;;;;10.85;100.00;101173.19;109733;1247;62391;-69
2023/10/24 06:48:35;;;;;;;;;;;;;;;11.03;100.00;101169.73;109744;1244;59523;-69
2023/10/24 06:51:03;;;;;;;;;;;;;;;11.21;100.00;101169.74;109628;1245;75040;-67
2023/10/24 06:53:32;;;;;;;;;;;;;;;11.34;100.00;101168.66;109756;1244;61146;-75
2023/10/24 06:56:01;;;;;;;;;;;;;;;11.46;100.00;101171.70;109773;1244;69681;-69
2023/10/24 06:58:29;;;;;;;;;;;;;;;11.51;100.00;101180.27;109743;1244;72852;-68
2023/10/24 07:00:58;;;;;;;;;;;;;;;11.67;100.00;101180.67;109742;1244;63283;-69
2023/10/24 07:03:27;;;;;;;;;;;;;;;11.85;100.00;101182.63;109641;1244;57707;-68
2023/10/24 07:05:56;;;;;;;;;;;;;;;11.95;100.00;101187.20;109740;1245;73605;-68
2023/10/24 07:08:25;;;;;;;;;;;;;;;11.99;100.00;101185.11;109663;1245;62255;-68
2023/10/24 07:10:53;;;;;;;;;;;;;;;12.04;100.00;101177.98;109586;1244;70321;-68
2023/10/24 07:13:22;;;;;;;;;;;;;;;12.17;100.00;101175.95;109599;1245;62828;-68
2023/10/24 07:15:51;;;;;;;;;;;;;;;12.25;100.00;101175.02;109624;1247;62653;-69
2023/10/24 07:18:19;;;;;;;;;;;;;;;12.41;100.00;101176.29;109544;1249;61306;-68
2023/10/24 07:20:48;;;;;;;;;;;;;;;12.57;100.00;101171.29;109648;1244;63650;-69
2023/10/24 07:23:16;;;;;;;;;;;;;;;12.68;100.00;101165.98;109642;1244;71996;-70
2023/10/24 07:25:45;;;;;;;;;;;;;;;12.78;100.00;101159.84;109550;1244;59348;-68
2023/10/24 07:28:13;;;;;;;;;;;;;;;12.97;100.00;101159.21;109615;1244;73618;-68
2023/10/24 07:30:42;;;;;;;;;;;;;;;13.08;100.00;101157.71;109614;1245;58173;-68
2023/10/24 07:33:10;;;;;;;;;;;;;;;13.21;100.00;101157.45;109632;1245;60942;-68
2023/10/24 07:35:40;;;;;;;;;;;;;;;13.33;100.00;101161.30;109743;1244;65193;-69
2023/10/24 07:38:09;;;;;;;;;;;;;;;13.47;100.00;101156.02;109719;1244;61369;-69
2023/10/24 07:40:39;;;;;;;;;;;;;;;13.65;100.00;101153.05;109589;1244;68876;-68
2023/10/24 07:43:07;;;;;;;;;;;;;;;13.79;100.00;101156.96;109530;1244;73335;-69
2023/10/24 07:45:36;;;;;;;;;;;;;;;13.89;100.00;101156.38;109595;1244;58297;-70
2023/10/24 07:48:05;;;;;;;;;;;;;;;14.02;100.00;101150.27;109520;1244;60861;-69
2023/10/24 07:50:34;;;;;;;;;;;;;;;14.16;100.00;101155.86;109593;1244;64424;-68
2023/10/24 07:53:03;;;;;;;;;;;;;;;14.32;100.00;101155.77;109633;1244;71876;-69
2023/10/24 07:55:32;;;;;;;;;;;;;;;14.44;100.00;101155.13;109630;1244;60812;-69
2023/10/24 07:58:01;;;;;;;;;;;;;;;14.50;100.00;101142.69;109601;1244;71828;-70
2023/10/24 08:00:29;;;;;;;;;;;;;;;14.75;100.00;101144.20;109459;1248;61007;-69
2023/10/24 08:02:58;;;;;;;;;;;;;;;14.99;100.00;101140.42;109640;1244;59581;-69
2023/10/24 08:05:26;;;;;;;;;;;;;;;15.18;100.00;101139.52;109510;1244;74830;-69
2023/10/24 08:07:55;;;;;;;;;;;;;;;15.40;100.00;101136.71;109589;1244;60538;-69
2023/10/24 08:10:23;;;;;;;;;;;;;;;15.69;100.00;101130.53;109730;1244;61509;-69
2023/10/24 08:12:52;;;;;;;;;;;;;;;15.96;100.00;101126.95;109749;1244;62827;-69
2023/10/24 08:15:20;;;;;;;;;;;;;;;16.25;100.00;101121.20;109718;1244;59193;-68
2023/10/24 08:17:49;;;;;;;;;;;;;;;16.42;100.00;101122.66;109753;1244;58065;-69
2023/10/24 08:20:18;;;;;;;;;;;;;;;16.80;100.00;101116.96;109730;1244;73542;-69
2023/10/24 08:22:48;;;;;;;;;;;;;;;17.04;100.00;101112.64;109642;1244;61856;-69
2023/10/24 08:25:17;;;;;;;;;;;;;;;17.19;100.00;101102.23;109549;1244;69468;-69
2023/10/24 08:27:45;;;;;;;;;;;;;;;17.50;100.00;101102.81;109517;1244;73506;-70
2023/10/24 08:30:14;;;;;;;;;;;;;;;17.50;100.00;101099.96;109427;1248;57805;-70
2023/10/24 08:32:42;;;;;;;;;;;;;;;17.44;100.00;101088.90;109449;1245;61364;-70
2023/10/24 08:35:11;;;;;;;;;;;;;;;17.77;100.00;101081.21;109574;1244;74350;-69
2023/10/24 08:37:40;;;;;;;;;;;;;;;17.86;100.00;101079.45;109592;1244;61084;-69
2023/10/24 08:40:09;;;;;;;;;;;;;;;17.82;100.00;101085.50;109589;1244;59787;-70
2023/10/24 08:42:38;;;;;;;;;;;;;;;17.88;100.00;101082.94;109604;1244;63049;-79
2023/10/24 08:45:08;;;;;;;;;;;;;;;17.93;100.00;101072.45;109596;1244;58283;-69
2023/10/24 08:47:37;;;;;;;;;;;;;;;17.88;100.00;101073.76;109473;1245;60827;-69
2023/10/24 08:50:06;;;;;;;;;;;;;;;17.96;100.00;101075.70;109516;1244;74721;-69
2023/10/24 08:52:35;;;;;;;;;;;;;;;18.03;100.00;101078.16;109515;1244;62098;-69
2023/10/24 08:55:04;;;;;;;;;;;;;;;18.12;100.00;101072.46;109514;1244;70639;-70
2023/10/24 08:57:37;;;;;;;;;;;;;;;18.16;100.00;101075.64;109489;1244;62751;-70
2023/10/24 09:00:10;;;;;;;;;;;;;;;18.11;100.00;101074.70;109618;1244;58214;-69
2023/10/24 09:02:43;;;;;;;;;;;;;;;18.19;100.00;101074.31;109620;1244;60463;-77
2023/10/24 09:05:13;;;;;;;;;;;;;;;18.10;100.00;101072.67;109628;1244;63756;-70
2023/10/24 09:07:42;;;;;;;;;;;;;;;18.42;100.00;101068.66;109614;1244;60687;-70
2023/10/24 09:10:10;;;;;;;;;;;;;;;18.28;100.00;101064.58;109777;1244;70426;-70
2023/10/24 09:12:39;;;;;;;;;;;;;;;18.25;100.00;101055.04;109783;1244;63522;-69
2023/10/24 09:15:11;;;;;;;;;;;;;;;18.14;100.00;101047.64;109740;1245;57823;-68
2023/10/24 09:17:41;;;;;;;;;;;;;;;18.11;100.00;101041.89;109786;1244;58265;-81
2023/10/24 09:20:10;;;;;;;;;;;;;;;18.23;100.00;101035.28;109802;1244;74327;-69
2023/10/24 09:22:41;;;;;;;;;;;;;;;18.17;100.00;101032.71;109784;1244;71774;-70
2023/10/24 09:25:10;;;;;;;;;;;;;;;18.31;100.00;101033.77;109812;1244;60237;-68
2023/10/24 09:27:38;;;;;;;;;;;;;;;18.34;100.00;101027.27;109786;1244;73131;-69
2023/10/24 09:30:11;;;;;;;;;;;;;;;18.54;100.00;101029.80;109654;1244;58373;-69
2023/10/24 09:32:41;;;;;;;;;;;;;;;18.70;100.00;101038.30;109801;1244;60112;-69
2023/10/24 09:35:10;;;;;;;;;;;;;;;18.81;100.00;101041.48;109778;1244;63980;-69
2023/10/24 09:37:44;;;;;;;;;;;;;;;18.87;100.00;101035.04;109683;1244;72119;-69
2023/10/24 09:40:13;;;;;;;;;;;;;;;18.98;100.00;101031.42;109669;1244;60121;-69
2023/10/24 09:42:42;;;;;;;;;;;;;;;18.98;100.00;101025.37;109760;1244;71930;-78
2023/10/24 09:45:11;;;;;;;;;;;;;;;19.06;100.00;101030.16;109751;1247;58317;-70
2023/10/24 09:47:41;;;;;;;;;;;;;;;19.17;100.00;101037.23;109792;1244;57700;-71
2023/10/24 09:50:12;;;;;;;;;;;;;;;19.16;100.00;101037.27;109666;1248;63546;-70
2023/10/24 09:52:41;;;;;;;;;;;;;;;19.15;100.00;101023.52;109680;1244;61812;-70
2023/10/24 09:55:12;;;;;;;;;;;;;;;19.12;100.00;101004.74;109781;1244;69937;-69
2023/10/24 09:57:44;;;;;;;;;;;;;;;19.16;100.00;101000.46;109640;1244;63644;-70
2023/10/24 10:00:13;;;;;;;;;;;;;;;19.28;100.00;100987.48;109772;1245;60453;-69
2023/10/24 10:02:44;;;;;;;;;;;;;;;19.54;99.96;100984.92;109887;1244;58725;-71
2023/10/24 10:05:14;;;;;;;;;;;;;;;19.43;99.20;100977.51;109868;1244;73742;-70
2023/10/24 10:07:48;;;;;;;;;;;;;;;19.71;98.35;100976.44;109674;1244;71717;-76
2023/10/24 10:10:19;;;;;;;;;;;;;;;19.95;98.50;100971.54;109589;1244;58858;-70
2023/10/24 10:12:48;;;;;;;;;;;;;;;20.11;96.04;100958.65;109680;1244;74514;-70
2023/10/24 10:15:25;;;;;;;;;;;;;;;20.31;96.55;100957.52;109786;1244;60516;-69
2023/10/24 10:18:18;;;;;;;;;;;;;;;20.67;98.55;100944.17;109827;1244;57775;-69
2023/10/24 10:21:10;;;;;;;;;;;;;;;20.24;94.53;100944.63;109813;1245;63643;-70
2023/10/24 10:24:06;;;;;;;;;;;;;;;20.04;95.93;100949.89;109786;1244;72309;-69
2023/10/24 10:26:59;;;;;;;;;;;;;;;19.93;94.13;100946.12;109774;1244;60767;-70
2023/10/24 10:29:48;;;;;;;;;;;;;;;20.07;91.76;100955.56;109625;1244;62316;-70
2023/10/24 10:32:28;;;;;;;;;;;;;;;20.23;91.86;100960.33;109648;1248;60615;-71
2023/10/24 10:35:19;;;;;;;;;;;;;;;20.33;90.32;100949.91;109813;1244;57709;-70
2023/10/24 10:38:03;;;;;;;;;;;;;;;20.15;88.84;100940.38;109821;1244;73669;-69
2023/10/24 10:40:33;;;;;;;;;;;;;;;20.54;87.31;100928.98;109621;1244;62227;-71
2023/10/24 10:43:02;;;;;;;;;;;;;;;20.40;86.54;100930.27;109814;1244;69321;-71
2023/10/24 10:45:32;;;;;;;;;;;;;;;20.55;89.05;100933.55;109798;1244;72813;-71
2023/10/24 10:48:04;;;;;;;;;;;;;;;20.38;87.71;100937.66;109686;1248;57722;-69
2023/10/24 10:50:35;;;;;;;;;;;;;;;20.54;86.77;100943.15;109662;1244;61033;-70
2023/10/24 10:53:20;;;;;;;;;;;;;;;20.14;87.90;100947.16;109671;1244;63685;-71
2023/10/24 10:55:52;;;;;;;;;;;;;;;20.03;89.13;100942.54;109700;1244;61446;-70
2023/10/24 10:58:23;;;;;;;;;;;;;;;19.67;89.95;100935.18;109817;1244;69018;-70
2023/10/24 11:01:03;;;;;;;;;;;;;;;19.56;91.42;100928.92;109644;1248;73264;-71
2023/10/24 11:03:42;;;;;;;;;;;;;;;19.70;91.38;100929.58;109677;1247;57792;-70
2023/10/24 11:06:14;;;;;;;;;;;;;;;19.89;90.98;100937.04;109575;1244;58142;-70
2023/10/24 11:09:06;;;;;;;;;;;;;;;19.97;90.14;100932.67;109716;1244;74309;-71
2023/10/24 11:11:37;;;;;;;;;;;;;;;19.69;91.99;100933.95;109699;1244;72487;-72
2023/10/24 11:14:16;;;;;;;;;;;;;;;19.61;92.53;100930.72;109622;1244;59649;-70
2023/10/24 11:16:49;;;;;;;;;;;;;;;19.66;93.24;100922.55;109698;1244;72813;-70
2023/10/24 11:19:22;;;;;;;;;;;;;;;19.81;92.80;100929.77;109655;1248;60790;-69
2023/10/24 11:21:53;;;;;;;;;;;;;;;19.88;92.01;100929.69;109662;1248;58171;-69
2023/10/24 11:24:22;;;;;;;;;;;;;;;19.87;91.12;100935.98;109601;1248;63612;-70
2023/10/24 11:26:54;;;;;;;;;;;;;;;19.70;90.50;100937.30;109577;1245;61676;-68
2023/10/24 11:29:22;;;;;;;;;;;;;;;19.63;90.65;100939.47;109803;1244;59827;-69
2023/10/24 11:31:51;;;;;;;;;;;;;;;19.75;90.37;100929.36;109742;1246;71710;-70
2023/10/24 11:34:19;;;;;;;;;;;;;;;19.75;90.03;100926.01;109741;1245;60688;-70
2023/10/24 11:36:48;;;;;;;;;;;;;;;20.02;90.09;100928.76;109765;1244;57745;-70
2023/10/24 11:39:17;;;;;;;;;;;;;;;20.11;88.97;100935.67;109749;1244;63755;-70
2023/10/24 11:41:46;;;;;;;;;;;;;;;20.24;88.92;100930.35;109726;1244;70504;-68
2023/10/24 11:44:17;;;;;;;;;;;;;;;20.31;89.53;100922.17;109583;1244;70237;-69
2023/10/24 11:46:46;;;;;;;;;;;;;;;20.25;88.04;100915.56;109629;1245;62859;-70
2023/10/24 11:49:14;;;;;;;;;;;;;;;20.14;87.62;100905.99;109617;1244;61377;-68
2023/10/24 11:51:43;;;;;;;;;;;;;;;20.29;87.64;100901.16;109523;1248;58228;-70
2023/10/24 11:54:12;;;;;;;;;;;;;;;20.41;88.08;100899.55;109621;1247;64670;-69
2023/10/24 11:56:41;;;;;;;;;;;;;;;20.32;87.59;100898.70;109471;1244;70561;-71
2023/10/24 11:59:10;;;;;;;;;;;;;;;20.25;87.68;100895.52;109598;1244;60261;-69
2023/10/24 12:01:41;;;;;;;;;;;;;;;20.30;87.65;100891.19;109459;1244;72917;-70
2023/10/24 12:04:12;;;;;;;;;;;;;;;20.54;86.54;100883.98;109467;1247;60892;-70
2023/10/24 12:06:41;;;;;;;;;;;;;;;20.57;86.23;100884.79;109483;1244;61123;-70
2023/10/24 12:09:10;;;;;;;;;;;;;;;20.43;86.80;100877.39;109602;1246;63095;-70
2023/10/24 12:11:39;;;;;;;;;;;;;;;20.45;86.37;100865.81;109608;1246;61454;-70
2023/10/24 12:14:07;;;;;;;;;;;;;;;20.08;88.12;100856.52;109610;1244;69214;-70
2023/10/24 12:16:39;;;;;;;;;;;;;;;19.89;89.33;100853.73;109562;1245;63430;-70
2023/10/24 12:19:26;;;;;;;;;;;;;;;19.86;89.57;100841.58;109627;1247;60386;-70
2023/10/24 12:21:54;;;;;;;;;;;;;;;19.71;90.38;100833.11;109796;1247;60439;-69
2023/10/24 12:24:23;;;;;;;;;;;;;;;19.75;91.00;100820.52;109768;1246;63558;-69
2023/10/24 12:26:51;;;;;;;;;;;;;;;19.67;90.85;100814.34;109698;1244;71377;-76
2023/10/24 12:29:20;;;;;;;;;;;;;;;19.69;90.74;100814.17;109717;1247;60467;-69
2023/10/24 12:31:49;;;;;;;;;;;;;;;19.74;90.83;100821.15;109764;1245;63005;-69
2023/10/24 12:34:17;;;;;;;;;;;;;;;19.62;91.71;100822.11;109651;1244;60495;-70
2023/10/24 12:36:47;;;;;;;;;;;;;;;19.44;91.78;100821.45;109713;1245;57828;-70